Time;durP1;ratioP1;P1;durP2;ratioP2;P2;SDS_P1;SDS_P2;PMS_P1;PMS_P2;Temp;Humidity;BMP_temperature;BMP_pressure;BME280_temperature;BME280_humidity;BME280_pressure;Samples;Min_cycle;Max_cycle;Signal;HPM_P1;HPM_P2
2023/12/20 00:00:23;;;;;;;40.55;37.95;;;10.10;99.90;;;;;;5032010;28;20033;-72
2023/12/20 00:02:49;;;;;;;54.40;51.25;;;10.10;99.90;;;;;;5051758;28;20033;-71
2023/12/20 00:05:15;;;;;;;49.10;46.10;;;10.10;99.90;;;;;;5051169;28;20029;-72
2023/12/20 00:07:41;;;;;;;52.28;49.25;;;10.00;99.90;;;;;;5031109;28;20044;-71
2023/12/20 00:10:07;;;;;;;37.53;34.83;;;10.00;99.90;;;;;;5031977;28;20053;-74
2023/12/20 00:12:34;;;;;;;50.10;46.95;;;9.90;99.90;;;;;;5031603;28;20041;-74
2023/12/20 00:15:00;;;;;;;41.53;38.60;;;9.90;99.90;;;;;;5045802;28;20080;-74
2023/12/20 00:17:26;;;;;;;49.65;46.55;;;9.80;99.90;;;;;;5050994;28;20052;-74
2023/12/20 00:19:52;;;;;;;43.00;40.13;;;9.80;99.90;;;;;;5051833;28;20053;-76
2023/12/20 00:22:18;;;;;;;42.17;39.03;;;9.80;99.90;;;;;;5033258;28;20044;-73
2023/12/20 00:24:44;;;;;;;43.47;40.22;;;9.70;99.90;;;;;;5034486;28;20386;-76
2023/12/20 00:27:10;;;;;;;45.58;42.50;;;9.70;99.90;;;;;;5035505;28;20041;-76
2023/12/20 00:29:36;;;;;;;43.22;40.20;;;9.60;99.90;;;;;;5031651;28;20064;-76
2023/12/20 00:32:02;;;;;;;46.30;43.28;;;9.60;99.90;;;;;;5031131;28;20049;-76
2023/12/20 00:34:28;;;;;;;71.07;66.40;;;9.60;99.90;;;;;;5032162;28;20049;-76
2023/12/20 00:36:54;;;;;;;65.38;61.10;;;9.60;99.90;;;;;;5033377;28;20045;-76
2023/12/20 00:39:20;;;;;;;50.67;47.17;;;9.60;99.90;;;;;;5035866;28;20049;-76
2023/12/20 00:41:47;;;;;;;73.40;68.97;;;9.50;99.90;;;;;;5035733;28;20040;-76
2023/12/20 00:44:13;;;;;;;71.80;67.47;;;9.50;99.90;;;;;;5035877;28;20406;-76
2023/12/20 00:46:39;;;;;;;67.90;63.30;;;9.40;99.90;;;;;;5046814;28;20034;-76
2023/12/20 00:49:05;;;;;;;61.58;57.80;;;9.40;99.90;;;;;;5046262;28;20048;-76
2023/12/20 00:51:31;;;;;;;49.05;45.42;;;9.40;99.90;;;;;;5054823;28;20125;-76
2023/12/20 00:53:57;;;;;;;47.85;44.28;;;9.30;99.90;;;;;;5055626;28;20381;-76
2023/12/20 00:56:23;;;;;;;47.53;44.28;;;9.30;99.90;;;;;;5045290;28;20037;-76
2023/12/20 00:58:49;;;;;;;45.60;42.28;;;9.30;99.90;;;;;;5054281;28;20033;-76
2023/12/20 01:01:15;;;;;;;49.90;46.22;;;9.30;99.90;;;;;;5054303;28;20485;-76
2023/12/20 01:03:42;;;;;;;44.90;41.80;;;9.30;99.90;;;;;;5055290;28;20029;-76
2023/12/20 01:06:08;;;;;;;48.95;45.55;;;9.20;99.90;;;;;;5054887;28;20385;-76
2023/12/20 01:08:35;;;;;;;58.08;54.08;;;9.30;99.90;;;;;;5054540;28;20041;-76
2023/12/20 01:11:03;;;;;;;50.55;47.38;;;9.30;99.90;;;;;;5054493;28;20049;-76
2023/12/20 01:13:29;;;;;;;50.83;47.33;;;9.10;99.90;;;;;;5054188;28;20517;-73
2023/12/20 01:15:55;;;;;;;55.10;51.58;;;9.00;99.90;;;;;;5052347;28;20033;-73
2023/12/20 01:18:21;;;;;;;48.65;45.15;;;9.00;99.90;;;;;;5055113;28;20036;-73
2023/12/20 01:20:47;;;;;;;40.58;37.38;;;9.00;99.90;;;;;;5049626;28;20109;-73
2023/12/20 01:23:13;;;;;;;60.75;56.47;;;9.10;99.90;;;;;;5035277;28;20490;-73
2023/12/20 01:25:40;;;;;;;43.78;40.28;;;9.00;99.90;;;;;;5039519;28;20037;-73
2023/12/20 01:28:06;;;;;;;52.85;49.00;;;9.00;99.90;;;;;;5034737;28;20029;-73
2023/12/20 01:30:32;;;;;;;44.65;41.33;;;8.90;99.90;;;;;;5032712;28;20041;-73
2023/12/20 01:33:00;;;;;;;47.95;44.60;;;9.00;99.90;;;;;;5033574;28;20037;-73
2023/12/20 01:35:26;;;;;;;44.72;40.67;;;8.90;99.90;;;;;;5034567;28;20397;-73
2023/12/20 01:37:56;;;;;;;38.08;35.60;;;8.90;99.90;;;;;;5033589;28;20044;-72
2023/12/20 01:40:23;;;;;;;44.13;40.72;;;8.90;99.90;;;;;;5033248;28;20032;-73
2023/12/20 01:43:12;;;;;;;46.45;43.03;;;8.80;99.90;;;;;;5034709;28;20036;-73
2023/12/20 01:45:38;;;;;;;40.53;37.15;;;8.80;99.90;;;;;;5037977;28;20029;-73
2023/12/20 01:48:05;;;;;;;38.15;34.95;;;8.80;99.90;;;;;;5032036;28;20026;-73
2023/12/20 01:50:31;;;;;;;41.92;38.35;;;8.80;99.90;;;;;;5016244;28;20782;-73
2023/12/20 01:52:58;;;;;;;44.95;41.40;;;8.80;99.90;;;;;;5034491;28;20017;-74
2023/12/20 01:55:25;;;;;;;40.47;37.25;;;8.80;99.90;;;;;;5034127;28;20029;-73
2023/12/20 01:57:51;;;;;;;38.38;35.60;;;8.80;99.90;;;;;;5033276;28;20025;-73
2023/12/20 02:00:17;;;;;;;39.85;37.05;;;8.80;99.90;;;;;;5033182;28;20029;-73
2023/12/20 02:02:43;;;;;;;40.72;38.20;;;8.70;99.90;;;;;;5016016;28;20029;-73
2023/12/20 02:05:09;;;;;;;50.17;46.85;;;8.60;99.90;;;;;;5033064;28;20032;-73
2023/12/20 02:07:35;;;;;;;51.15;47.50;;;8.60;99.90;;;;;;5042506;28;20055;-73
2023/12/20 02:10:02;;;;;;;41.88;38.38;;;8.60;99.90;;;;;;5053423;28;20045;-73
2023/12/20 02:12:28;;;;;;;34.55;31.70;;;8.70;99.90;;;;;;5036910;28;20048;-73
2023/12/20 02:14:54;;;;;;;34.90;31.38;;;8.70;99.90;;;;;;5033667;28;20037;-73
2023/12/20 02:17:20;;;;;;;40.63;37.47;;;8.80;99.90;;;;;;5031786;28;20033;-73
2023/12/20 02:19:46;;;;;;;35.50;32.50;;;8.70;99.90;;;;;;5032462;28;20382;-73
2023/12/20 02:22:12;;;;;;;37.35;33.80;;;8.80;99.90;;;;;;5044830;28;20059;-76
2023/12/20 02:24:38;;;;;;;40.53;37.22;;;8.80;99.90;;;;;;5053331;28;20469;-76
2023/12/20 02:27:08;;;;;;;38.35;35.42;;;8.80;99.90;;;;;;5038004;28;20040;-76
2023/12/20 02:29:34;;;;;;;39.88;36.40;;;8.80;99.90;;;;;;5032046;28;20041;-77
2023/12/20 02:32:00;;;;;;;38.70;35.92;;;8.80;99.90;;;;;;5033217;28;20030;-75
2023/12/20 02:34:26;;;;;;;39.45;36.33;;;8.90;99.90;;;;;;5033874;28;20036;-75
2023/12/20 02:36:52;;;;;;;36.78;33.80;;;9.00;99.90;;;;;;5033621;28;20026;-74
2023/12/20 02:39:19;;;;;;;40.15;37.17;;;9.00;99.90;;;;;;5033377;28;20032;-75
2023/12/20 02:41:45;;;;;;;40.30;36.38;;;9.00;99.90;;;;;;5033483;28;20036;-74
2023/12/20 02:44:11;;;;;;;36.25;33.33;;;9.00;99.90;;;;;;5033201;28;20056;-75
2023/12/20 02:46:37;;;;;;;44.17;39.92;;;9.00;99.90;;;;;;5047670;28;20033;-75
2023/12/20 02:49:03;;;;;;;44.35;40.70;;;9.00;99.90;;;;;;5033463;28;20371;-74
2023/12/20 02:51:29;;;;;;;38.40;35.33;;;9.00;99.90;;;;;;5033120;28;20033;-75
2023/12/20 02:53:55;;;;;;;35.90;32.95;;;9.00;99.90;;;;;;5033528;28;20391;-75
2023/12/20 02:56:21;;;;;;;37.15;34.25;;;9.00;99.90;;;;;;5031624;28;20049;-75
2023/12/20 02:58:47;;;;;;;35.88;33.40;;;8.90;99.90;;;;;;5033284;28;20056;-75
2023/12/20 03:01:14;;;;;;;44.13;40.70;;;8.90;99.90;;;;;;5032257;28;20048;-74
2023/12/20 03:03:40;;;;;;;49.88;45.83;;;8.80;99.90;;;;;;5032897;28;20041;-74
2023/12/20 03:06:06;;;;;;;49.78;46.20;;;8.80;99.90;;;;;;5032624;28;20395;-74
2023/12/20 03:08:32;;;;;;;45.83;42.35;;;8.80;99.90;;;;;;5033345;28;20026;-74
2023/12/20 03:11:01;;;;;;;46.97;43.58;;;8.80;99.90;;;;;;5050305;28;20497;-75
2023/12/20 03:13:27;;;;;;;48.10;44.85;;;8.80;99.90;;;;;;5052584;28;20522;-74
2023/12/20 03:15:53;;;;;;;48.65;45.35;;;8.80;99.90;;;;;;5045879;28;20033;-75
2023/12/20 03:18:19;;;;;;;50.85;47.58;;;8.70;99.90;;;;;;5032806;28;20025;-75
2023/12/20 03:20:47;;;;;;;53.03;49.42;;;8.70;99.90;;;;;;5032812;28;20044;-75
2023/12/20 03:23:13;;;;;;;42.60;39.47;;;8.70;99.90;;;;;;5049670;28;20513;-71
2023/12/20 03:25:39;;;;;;;40.55;37.05;;;8.60;99.90;;;;;;5046102;28;20033;-72
2023/12/20 03:28:05;;;;;;;41.08;37.78;;;8.60;99.90;;;;;;5031361;28;20032;-71
2023/12/20 03:30:31;;;;;;;47.22;43.83;;;8.60;99.90;;;;;;5030903;28;20074;-70
2023/12/20 03:32:57;;;;;;;39.40;36.47;;;8.60;99.90;;;;;;5032655;28;20030;-72
2023/12/20 03:35:24;;;;;;;41.88;38.97;;;8.60;99.90;;;;;;5032314;28;20378;-72
2023/12/20 03:37:50;;;;;;;44.92;41.80;;;8.50;99.90;;;;;;5032621;28;20033;-72
2023/12/20 03:40:16;;;;;;;39.22;36.03;;;8.50;99.90;;;;;;5032196;28;20485;-72
2023/12/20 03:42:42;;;;;;;36.35;33.40;;;8.40;99.90;;;;;;5032504;28;20040;-71
2023/12/20 03:45:08;;;;;;;37.25;34.00;;;8.40;99.90;;;;;;5035323;28;20021;-71
2023/12/20 03:47:35;;;;;;;36.83;34.07;;;8.40;99.90;;;;;;5052198;28;20032;-72
2023/12/20 03:50:01;;;;;;;38.83;36.08;;;8.40;99.90;;;;;;5043724;28;20041;-71
2023/12/20 03:52:27;;;;;;;38.78;35.33;;;8.30;99.90;;;;;;5030943;28;20021;-72
2023/12/20 03:54:53;;;;;;;38.67;35.67;;;8.30;99.90;;;;;;5032112;28;20032;-72
2023/12/20 03:57:20;;;;;;;43.70;39.97;;;8.30;99.90;;;;;;5030829;28;20040;-71
2023/12/20 03:59:46;;;;;;;38.70;35.53;;;8.20;99.90;;;;;;5032812;28;20497;-72
2023/12/20 04:02:12;;;;;;;35.53;32.33;;;8.30;99.90;;;;;;5031362;28;20041;-72
2023/12/20 04:04:39;;;;;;;38.83;36.03;;;8.20;99.90;;;;;;5032236;28;20382;-71
2023/12/20 04:07:05;;;;;;;36.13;32.72;;;8.20;99.90;;;;;;5032065;28;20038;-72
2023/12/20 04:09:31;;;;;;;43.65;40.30;;;8.30;99.90;;;;;;5034816;28;20485;-71
2023/12/20 04:11:57;;;;;;;45.95;42.78;;;8.20;99.90;;;;;;5044591;28;20052;-71
2023/12/20 04:14:24;;;;;;;37.60;34.70;;;8.20;99.90;;;;;;5036072;28;20045;-71
2023/12/20 04:16:50;;;;;;;37.55;34.67;;;8.10;99.90;;;;;;5035592;28;20387;-72
2023/12/20 04:19:16;;;;;;;29.52;27.63;;;8.10;99.90;;;;;;5035173;28;20045;-71
2023/12/20 04:21:42;;;;;;;31.30;28.63;;;8.10;99.90;;;;;;5034366;28;20516;-72
2023/12/20 04:24:09;;;;;;;28.50;26.27;;;8.10;99.90;;;;;;5034344;28;20041;-72
2023/12/20 04:26:35;;;;;;;31.20;28.37;;;8.20;99.90;;;;;;5035771;28;20041;-75
2023/12/20 04:29:01;;;;;;;27.23;25.13;;;8.10;99.90;;;;;;5034853;28;20034;-75
2023/12/20 04:31:27;;;;;;;29.13;26.37;;;8.10;99.90;;;;;;5035367;28;20041;-75
2023/12/20 04:33:53;;;;;;;31.17;28.57;;;8.10;99.90;;;;;;5036403;28;20389;-74
2023/12/20 04:36:19;;;;;;;33.40;30.90;;;8.20;99.90;;;;;;5055242;28;20036;-74
2023/12/20 04:38:45;;;;;;;34.08;31.27;;;8.20;99.90;;;;;;5054254;28;20473;-74
2023/12/20 04:41:15;;;;;;;39.67;36.33;;;8.10;99.90;;;;;;5046838;28;20021;-74
2023/12/20 04:43:41;;;;;;;37.40;34.40;;;8.20;99.90;;;;;;5036023;28;20041;-74
2023/12/20 04:46:07;;;;;;;47.83;44.67;;;8.20;99.90;;;;;;5038501;28;20044;-74
2023/12/20 04:48:33;;;;;;;58.45;55.22;;;8.20;99.90;;;;;;5035774;28;20025;-74
2023/12/20 04:51:00;;;;;;;66.28;62.28;;;8.10;99.90;;;;;;5053825;28;20048;-74
2023/12/20 04:53:26;;;;;;;69.78;65.18;;;8.10;99.90;;;;;;5055373;28;20060;-75
2023/12/20 04:55:52;;;;;;;51.78;47.90;;;8.10;99.90;;;;;;5050269;28;20048;-74
2023/12/20 04:58:18;;;;;;;49.67;45.92;;;8.10;99.90;;;;;;5055389;28;20786;-74
2023/12/20 05:00:44;;;;;;;46.40;43.45;;;8.10;99.90;;;;;;5047938;28;20033;-74
2023/12/20 05:03:10;;;;;;;40.45;37.53;;;8.10;99.90;;;;;;5050520;28;20052;-74
2023/12/20 05:05:36;;;;;;;72.70;68.47;;;8.10;99.90;;;;;;5033527;28;20494;-74
2023/12/20 05:08:03;;;;;;;103.70;97.38;;;8.00;99.90;;;;;;5044352;28;20032;-74
2023/12/20 05:10:29;;;;;;;82.80;77.40;;;8.10;99.90;;;;;;5054599;28;20064;-74
2023/12/20 05:12:56;;;;;;;92.38;87.00;;;8.10;99.90;;;;;;5055283;28;20032;-75
2023/12/20 05:15:22;;;;;;;102.88;96.65;;;8.10;99.90;;;;;;5052785;28;20044;-74
2023/12/20 05:17:48;;;;;;;92.07;86.53;;;8.10;99.90;;;;;;5054628;28;20060;-75
2023/12/20 05:20:14;;;;;;;86.03;80.85;;;8.10;99.90;;;;;;5054557;28;20406;-74
2023/12/20 05:22:41;;;;;;;80.95;75.95;;;8.10;99.90;;;;;;5060898;28;20036;-74
2023/12/20 05:25:07;;;;;;;91.57;86.38;;;8.20;99.90;;;;;;5052867;28;20041;-75
2023/12/20 05:27:33;;;;;;;82.18;77.28;;;8.20;99.90;;;;;;5034561;28;20033;-74
2023/12/20 05:29:59;;;;;;;71.72;67.25;;;8.20;99.90;;;;;;5039442;28;20044;-71
2023/12/20 05:32:25;;;;;;;77.73;72.70;;;8.20;99.90;;;;;;5033932;28;20422;-72
2023/12/20 05:34:51;;;;;;;60.20;56.33;;;8.10;99.90;;;;;;5053892;28;20033;-72
2023/12/20 05:37:17;;;;;;;71.70;67.20;;;8.10;99.90;;;;;;5053851;28;20474;-72
2023/12/20 05:39:43;;;;;;;60.40;56.22;;;8.20;99.90;;;;;;5053220;28;20033;-72
2023/12/20 05:42:10;;;;;;;54.53;50.40;;;8.20;99.90;;;;;;5052420;28;20037;-72
2023/12/20 05:44:36;;;;;;;77.55;72.43;;;8.10;99.90;;;;;;5053079;28;20037;-72
2023/12/20 05:47:02;;;;;;;65.30;60.88;;;8.10;99.90;;;;;;5053342;28;20041;-73
2023/12/20 05:49:28;;;;;;;52.17;48.50;;;8.20;99.90;;;;;;5046652;28;20037;-72
2023/12/20 05:51:54;;;;;;;417.63;112.40;;;8.20;99.90;;;;;;5033725;28;20067;-71
2023/12/20 05:54:23;;;;;;;93.63;87.88;;;8.20;99.90;;;;;;5034534;28;20486;-72
2023/12/20 05:56:50;;;;;;;279.38;98.90;;;8.30;99.90;;;;;;5031563;28;20056;-72
2023/12/20 05:59:16;;;;;;;438.83;81.80;;;8.30;99.90;;;;;;5034150;28;20041;-72
2023/12/20 06:01:42;;;;;;;94.45;57.58;;;8.30;99.90;;;;;;5032432;28;20038;-72
2023/12/20 06:04:08;;;;;;;147.70;43.40;;;8.30;99.90;;;;;;5034475;28;20038;-72
2023/12/20 06:06:39;;;;;;;46.05;42.47;;;8.30;99.90;;;;;;5052286;28;20032;-72
2023/12/20 06:09:05;;;;;;;;;;;8.30;99.90;;;;;;5034428;28;20040;-72
2023/12/20 06:11:31;;;;;;;35.53;32.42;;;8.20;99.90;;;;;;5033870;28;19920;-72
2023/12/20 06:13:57;;;;;;;42.17;39.30;;;8.20;99.90;;;;;;5032877;28;20036;-72
2023/12/20 06:16:24;;;;;;;66.70;62.60;;;8.20;99.90;;;;;;5033517;28;20037;-72
2023/12/20 06:18:50;;;;;;;50.00;46.92;;;8.10;99.90;;;;;;5032612;28;20038;-72
2023/12/20 06:21:16;;;;;;;37.58;34.55;;;8.10;99.90;;;;;;5033515;28;20040;-71
2023/12/20 06:23:42;;;;;;;64.32;60.15;;;8.10;99.90;;;;;;5032578;28;20029;-72
2023/12/20 06:26:08;;;;;;;443.85;88.25;;;8.10;99.90;;;;;;5041754;28;20027;-72
2023/12/20 06:28:34;;;;;;;220.13;103.20;;;8.10;99.90;;;;;;5053326;28;20025;-71
2023/12/20 06:31:00;;;;;;;83.78;78.65;;;8.10;99.90;;;;;;5046100;28;20064;-72
2023/12/20 06:33:26;;;;;;;91.25;85.78;;;8.00;99.90;;;;;;5032301;28;20029;-72
2023/12/20 06:35:53;;;;;;;878.10;157.05;;;8.00;99.90;;;;;;5030573;28;20041;-72
2023/12/20 06:38:19;;;;;;;68.97;62.63;;;7.90;99.90;;;;;;5032402;28;20030;-72
2023/12/20 06:40:45;;;;;;;58.08;53.88;;;8.00;99.90;;;;;;5031928;28;20488;-72
2023/12/20 06:43:13;;;;;;;584.70;134.95;;;8.00;99.90;;;;;;5033639;28;20045;-72
2023/12/20 06:45:39;;;;;;;104.45;97.97;;;7.90;99.90;;;;;;5039582;28;20374;-72
2023/12/20 06:48:05;;;;;;;79.30;74.35;;;7.90;99.90;;;;;;5053236;28;20045;-74
2023/12/20 06:50:31;;;;;;;83.88;76.43;;;7.90;99.90;;;;;;5049603;28;20045;-74
2023/12/20 06:52:57;;;;;;;85.87;80.20;;;8.00;99.90;;;;;;5033491;28;20029;-74
2023/12/20 06:55:23;;;;;;;88.03;83.00;;;8.00;99.90;;;;;;5033162;28;20466;-76
2023/12/20 06:57:50;;;;;;;78.50;73.63;;;8.00;99.90;;;;;;5033423;28;20025;-74
2023/12/20 07:00:17;;;;;;;95.78;90.18;;;8.00;99.90;;;;;;5032293;28;20037;-74
2023/12/20 07:02:44;;;;;;;99.18;92.57;;;8.00;99.90;;;;;;5033513;28;21455;-74
2023/12/20 07:05:10;;;;;;;118.38;110.30;;;8.00;99.90;;;;;;5045778;28;20037;-75
2023/12/20 07:07:36;;;;;;;103.72;96.18;;;8.00;99.90;;;;;;5041323;28;20558;-74
2023/12/20 07:10:02;;;;;;;102.25;95.40;;;8.00;99.90;;;;;;5051782;28;20037;-74
2023/12/20 07:12:28;;;;;;;90.10;84.78;;;8.00;99.90;;;;;;5034195;28;20040;-73
2023/12/20 07:14:54;;;;;;;68.50;63.92;;;8.10;99.90;;;;;;5035939;28;20100;-74
2023/12/20 07:17:21;;;;;;;59.53;55.83;;;8.10;99.90;;;;;;5051500;28;20417;-74
2023/12/20 07:19:47;;;;;;;63.95;59.65;;;8.10;99.90;;;;;;5052058;28;20081;-74
2023/12/20 07:22:13;;;;;;;57.70;53.65;;;8.00;99.90;;;;;;5026965;28;20064;-74
2023/12/20 07:24:39;;;;;;;62.22;58.25;;;8.00;99.90;;;;;;5032917;28;20033;-74
2023/12/20 07:27:05;;;;;;;57.85;53.63;;;7.90;99.90;;;;;;5037283;28;20033;-74
2023/12/20 07:29:31;;;;;;;74.53;69.88;;;7.80;99.90;;;;;;5032239;28;20045;-73
2023/12/20 07:31:57;;;;;;;63.30;59.30;;;7.80;99.90;;;;;;5031664;28;20212;-74
2023/12/20 07:34:23;;;;;;;58.43;54.83;;;7.80;99.90;;;;;;5033499;28;20042;-75
2023/12/20 07:36:49;;;;;;;65.60;61.78;;;7.70;99.90;;;;;;5032382;28;20032;-74
2023/12/20 07:39:16;;;;;;;84.60;79.45;;;7.70;99.90;;;;;;5032128;28;20392;-74
2023/12/20 07:41:42;;;;;;;96.93;91.07;;;7.70;99.90;;;;;;5032329;28;20030;-74
2023/12/20 07:44:08;;;;;;;102.20;96.33;;;7.70;99.90;;;;;;5032023;28;20045;-74
2023/12/20 07:46:34;;;;;;;75.85;71.18;;;7.70;99.90;;;;;;5048044;28;20037;-74
2023/12/20 07:49:00;;;;;;;79.17;74.63;;;7.70;99.90;;;;;;5052140;28;20040;-74
2023/12/20 07:51:26;;;;;;;62.85;57.97;;;7.70;99.90;;;;;;5035801;28;20052;-72
2023/12/20 07:53:52;;;;;;;80.57;75.03;;;7.60;99.90;;;;;;5035491;28;20032;-70
2023/12/20 07:56:19;;;;;;;69.68;65.43;;;7.60;99.90;;;;;;5028636;28;20047;-73
2023/12/20 07:58:45;;;;;;;80.22;75.28;;;7.60;99.90;;;;;;5013556;28;20394;-72
2023/12/20 08:01:11;;;;;;;65.93;61.30;;;7.50;99.90;;;;;;5037490;28;20041;-70
2023/12/20 08:03:38;;;;;;;80.77;75.60;;;7.50;99.90;;;;;;5046643;28;20037;-85
2023/12/20 08:06:04;;;;;;;83.15;78.30;;;7.50;99.90;;;;;;5050669;28;20025;-77
2023/12/20 08:08:30;;;;;;;67.67;63.27;;;7.50;99.90;;;;;;5035349;28;20038;-79
2023/12/20 08:10:59;;;;;;;86.20;80.85;;;7.40;99.90;;;;;;5042696;28;20067;-78
2023/12/20 08:13:26;;;;;;;83.53;78.63;;;7.50;99.90;;;;;;5051510;28;20021;-77
2023/12/20 08:15:52;;;;;;;94.78;88.80;;;7.40;99.90;;;;;;5049677;28;20033;-78
2023/12/20 08:18:18;;;;;;;90.13;79.07;;;7.40;99.90;;;;;;5051224;28;20033;-77
2023/12/20 08:20:44;;;;;;;74.07;69.33;;;7.40;99.90;;;;;;5043798;28;20045;-78
2023/12/20 08:23:10;;;;;;;74.60;68.87;;;7.40;99.90;;;;;;5022270;28;20060;-78
2023/12/20 08:26:18;;;;;;;68.55;64.25;;;7.40;99.90;;;;;;4968145;28;20411;-73
2023/12/20 08:28:44;;;;;;;74.25;69.45;;;7.40;99.90;;;;;;4863436;28;20091;-79
2023/12/20 08:31:15;;;;;;;66.25;61.97;;;7.40;99.90;;;;;;5039640;28;20045;-82
2023/12/20 08:34:14;;;;;;;64.25;60.13;;;7.40;99.90;;;;;;5047615;28;20032;-82
2023/12/20 08:36:42;;;;;;;69.05;64.50;;;7.50;99.90;;;;;;5031959;28;20041;-81
2023/12/20 08:39:08;;;;;;;67.37;63.37;;;7.50;99.90;;;;;;5024674;28;20493;-77
2023/12/20 08:41:35;;;;;;;49.97;46.45;;;7.50;99.90;;;;;;5039903;28;20036;-79
2023/12/20 08:44:01;;;;;;;48.97;45.92;;;7.50;99.90;;;;;;5050182;28;20029;-79
2023/12/20 08:46:27;;;;;;;50.25;46.58;;;7.50;99.90;;;;;;5050249;28;20383;-80
2023/12/20 08:48:53;;;;;;;54.47;51.00;;;7.60;99.90;;;;;;5044413;28;20490;-80
2023/12/20 08:51:21;;;;;;;62.73;58.77;;;7.60;99.90;;;;;;5045247;28;20052;-80
2023/12/20 08:53:47;;;;;;;87.68;60.90;;;7.60;99.90;;;;;;5037054;28;20048;-77
2023/12/20 08:56:13;;;;;;;65.03;60.75;;;7.70;99.90;;;;;;5031437;28;20040;-77
2023/12/20 08:58:39;;;;;;;71.63;66.57;;;7.70;99.90;;;;;;5046337;28;20029;-77
2023/12/20 09:01:05;;;;;;;77.32;72.82;;;7.70;99.90;;;;;;5043954;28;20493;-77
2023/12/20 09:03:31;;;;;;;74.68;70.07;;;7.70;99.90;;;;;;5051280;28;20048;-77
2023/12/20 09:05:57;;;;;;;78.22;73.35;;;7.80;99.90;;;;;;5047405;28;20390;-77
2023/12/20 09:08:24;;;;;;;90.47;85.23;;;7.80;99.90;;;;;;5033805;28;20029;-77
2023/12/20 09:10:50;;;;;;;89.28;84.07;;;7.70;99.90;;;;;;5039560;28;20377;-78
2023/12/20 09:13:16;;;;;;;96.70;91.15;;;7.80;99.90;;;;;;5055041;28;20044;-77
2023/12/20 09:15:42;;;;;;;87.07;81.30;;;7.80;99.90;;;;;;5037002;28;20045;-77
2023/12/20 09:18:08;;;;;;;97.88;92.32;;;7.80;99.90;;;;;;5054667;28;20108;-77
2023/12/20 09:20:34;;;;;;;84.25;78.53;;;7.80;99.90;;;;;;5054039;28;20052;-77
2023/12/20 09:23:00;;;;;;;116.93;109.38;;;7.90;99.90;;;;;;5035506;28;20034;-77
2023/12/20 09:25:26;;;;;;;83.93;78.53;;;7.90;99.90;;;;;;5046849;28;20044;-77
2023/12/20 09:27:53;;;;;;;118.35;111.45;;;7.90;99.90;;;;;;5034465;28;20045;-75
2023/12/20 09:30:19;;;;;;;129.85;122.68;;;7.90;99.90;;;;;;5032857;28;20026;-77
2023/12/20 09:32:45;;;;;;;110.63;104.53;;;7.90;99.90;;;;;;5035335;28;20025;-73
2023/12/20 09:35:11;;;;;;;73.43;68.90;;;8.00;99.90;;;;;;5041863;28;20029;-77
2023/12/20 09:37:37;;;;;;;89.40;84.28;;;8.10;99.90;;;;;;5046743;28;20032;-78
2023/12/20 09:40:04;;;;;;;75.65;71.05;;;8.20;99.90;;;;;;5034666;28;20033;-78
2023/12/20 09:42:58;;;;;;;55.13;51.38;;;8.10;99.90;;;;;;5047041;28;20029;-78
2023/12/20 09:45:24;;;;;;;65.15;60.47;;;8.10;99.90;;;;;;5046366;28;20029;-78
2023/12/20 09:47:51;;;;;;;106.38;100.32;;;8.10;99.90;;;;;;5053932;28;20389;-78
2023/12/20 09:50:18;;;;;;;82.82;77.90;;;8.20;99.90;;;;;;5035919;28;20343;-78
2023/12/20 09:52:44;;;;;;;60.78;56.75;;;8.20;99.90;;;;;;5046150;28;20398;-79
2023/12/20 09:55:41;;;;;;;90.57;85.25;;;8.30;99.90;;;;;;5033335;28;20021;-81
2023/12/20 09:58:13;;;;;;;60.83;56.70;;;8.40;99.90;;;;;;5050457;28;20060;-81
2023/12/20 10:00:39;;;;;;;86.07;80.75;;;8.40;99.90;;;;;;5045107;28;20030;-81
2023/12/20 10:03:41;;;;;;;72.50;68.00;;;8.50;99.90;;;;;;5030218;28;20022;-81
2023/12/20 10:06:07;;;;;;;60.75;56.55;;;8.50;99.90;;;;;;5051093;28;20029;-86
2023/12/20 10:08:33;;;;;;;72.78;68.10;;;8.70;99.90;;;;;;5052166;28;20033;-81
2023/12/20 10:11:02;;;;;;;90.22;84.78;;;8.70;99.90;;;;;;5039527;28;20041;-82
2023/12/20 10:13:28;;;;;;;95.28;89.30;;;8.80;99.90;;;;;;5039996;28;20497;-81
2023/12/20 10:15:55;;;;;;;54.65;50.97;;;8.90;99.90;;;;;;5051697;28;20036;-82
2023/12/20 10:18:21;;;;;;;44.10;41.05;;;9.00;99.90;;;;;;5035041;28;20025;-82
2023/12/20 10:20:47;;;;;;;113.05;106.22;;;9.20;99.90;;;;;;5048097;28;20037;-82
2023/12/20 10:23:13;;;;;;;204.75;192.95;;;9.40;99.90;;;;;;5033642;28;20037;-81
2023/12/20 10:25:41;;;;;;;219.23;206.60;;;9.40;99.90;;;;;;5019344;28;20393;-83
2023/12/20 10:28:15;;;;;;;168.73;159.50;;;9.50;99.90;;;;;;5050730;28;20040;-83
2023/12/20 10:30:41;;;;;;;115.20;108.03;;;9.50;99.90;;;;;;5050320;28;20040;-82
2023/12/20 10:33:07;;;;;;;102.53;96.53;;;9.50;99.90;;;;;;5052296;28;20033;-82
2023/12/20 10:35:35;;;;;;;79.30;74.40;;;9.50;99.90;;;;;;5047130;28;20034;-83
2023/12/20 10:38:03;;;;;;;90.18;83.53;;;9.60;99.90;;;;;;5040749;28;20397;-80
2023/12/20 10:40:30;;;;;;;75.50;70.40;;;9.70;99.90;;;;;;4998014;28;20682;-80
2023/12/20 10:42:56;;;;;;;99.68;93.80;;;9.80;99.90;;;;;;5032048;28;20041;-80
2023/12/20 10:45:23;;;;;;;83.53;77.78;;;9.90;99.90;;;;;;5016535;28;20052;-80
2023/12/20 10:47:49;;;;;;;91.47;85.88;;;9.90;99.90;;;;;;5051684;28;20389;-82
2023/12/20 10:50:16;;;;;;;100.15;94.18;;;9.90;99.90;;;;;;5051229;28;20033;-79
2023/12/20 10:52:42;;;;;;;83.32;78.10;;;9.90;99.90;;;;;;5037068;28;20390;-79
2023/12/20 10:55:08;;;;;;;69.63;65.50;;;10.00;99.90;;;;;;5015169;28;20034;-80
2023/12/20 10:57:35;;;;;;;69.25;65.15;;;10.00;99.90;;;;;;5015673;28;20038;-77
2023/12/20 11:00:04;;;;;;;80.10;75.25;;;10.10;99.90;;;;;;5026266;28;20060;-72
2023/12/20 11:02:32;;;;;;;86.68;81.88;;;10.20;99.90;;;;;;5030348;28;20045;-72
2023/12/20 11:05:08;;;;;;;79.20;74.60;;;10.30;99.90;;;;;;5034682;28;20029;-70
2023/12/20 11:07:40;;;;;;;57.95;54.33;;;10.40;99.90;;;;;;5049987;28;20040;-70
2023/12/20 11:10:24;;;;;;;123.55;116.78;;;10.50;99.90;;;;;;5049758;28;20025;-71
2023/12/20 11:13:09;;;;;;;65.50;61.70;;;10.50;99.90;;;;;;5040477;28;20029;-70
2023/12/20 11:15:36;;;;;;;82.05;77.00;;;10.50;99.90;;;;;;5047324;28;20032;-71
2023/12/20 11:20:40;;;;;;;74.95;70.47;;;10.60;99.90;;;;;;4543620;22;20053;-70
2023/12/20 11:23:06;;;;;;;98.10;92.70;;;10.60;99.90;;;;;;5032138;28;20037;-69
2023/12/20 11:25:57;;;;;;;87.80;82.40;;;10.70;99.90;;;;;;5031990;28;20037;-69
2023/12/20 11:28:24;;;;;;;77.93;73.43;;;10.90;99.90;;;;;;5024014;28;20405;-69
2023/12/20 11:30:55;;;;;;;80.07;75.28;;;10.90;99.90;;;;;;5030734;28;20044;-69
2023/12/20 11:33:48;;;;;;;73.80;69.80;;;11.00;99.90;;;;;;5032062;28;20386;-69
2023/12/20 11:36:15;;;;;;;70.93;66.38;;;11.00;99.90;;;;;;5029699;28;20033;-69
2023/12/20 11:38:57;;;;;;;62.95;58.85;;;11.00;99.90;;;;;;5027605;28;20045;-69
2023/12/20 11:41:26;;;;;;;65.18;61.38;;;11.20;99.90;;;;;;5030377;28;20037;-69
2023/12/20 11:43:56;;;;;;;76.40;72.03;;;11.30;99.90;;;;;;5016239;28;20045;-69
2023/12/20 11:46:22;;;;;;;79.82;75.13;;;11.50;99.90;;;;;;5029686;28;20033;-68
2023/12/20 11:48:48;;;;;;;78.82;73.93;;;11.70;99.90;;;;;;5024677;28;20440;-68
2023/12/20 11:51:14;;;;;;;75.75;71.03;;;11.70;99.90;;;;;;5029942;28;20052;-69
2023/12/20 11:53:42;;;;;;;70.97;66.50;;;11.70;99.90;;;;;;5024511;28;20022;-69
2023/12/20 11:56:08;;;;;;;99.18;93.50;;;11.90;99.90;;;;;;5024885;28;20037;-69
2023/12/20 11:58:35;;;;;;;115.32;108.60;;;12.00;99.90;;;;;;5027360;28;20033;-69
2023/12/20 12:01:04;;;;;;;81.35;75.82;;;12.00;99.90;;;;;;5026491;28;20029;-69
2023/12/20 12:03:30;;;;;;;95.57;89.57;;;12.00;99.90;;;;;;5026871;28;20060;-68
2023/12/20 12:05:58;;;;;;;89.80;84.78;;;11.90;99.90;;;;;;5030421;28;20025;-69
2023/12/20 12:08:24;;;;;;;110.07;103.53;;;11.90;99.90;;;;;;5031000;28;20037;-69
2023/12/20 12:10:50;;;;;;;98.03;91.85;;;11.90;99.90;;;;;;5030747;28;20377;-68
2023/12/20 12:13:16;;;;;;;94.70;89.00;;;11.90;99.90;;;;;;5031575;28;20056;-69
2023/12/20 12:15:42;;;;;;;117.53;110.68;;;11.90;99.90;;;;;;5028363;28;20489;-69
2023/12/20 12:18:08;;;;;;;123.75;116.93;;;11.90;99.90;;;;;;5030361;28;20038;-66
2023/12/20 12:20:34;;;;;;;124.88;117.88;;;11.80;99.90;;;;;;5030187;28;20042;-67
2023/12/20 12:23:04;;;;;;;131.70;123.93;;;12.00;99.90;;;;;;5027705;28;20042;-66
2023/12/20 12:25:31;;;;;;;119.03;112.28;;;12.20;99.90;;;;;;5030372;28;20033;-72
2023/12/20 12:27:58;;;;;;;126.80;119.78;;;12.30;99.90;;;;;;5029876;28;20504;-72
2023/12/20 12:30:24;;;;;;;138.70;130.98;;;12.20;99.90;;;;;;5027021;28;20037;-73
2023/12/20 12:32:53;;;;;;;135.25;127.68;;;12.10;99.90;;;;;;5029493;28;20057;-68
2023/12/20 12:35:20;;;;;;;123.28;115.93;;;12.10;99.90;;;;;;5032135;28;20037;-72